Time,TemperatureF,DewpointF,PressureIn,WindDirection,WindDirectionDegrees,WindSpeedMPH,WindSpeedGustMPH,Humidity,HourlyPrecipIn,Conditions,Clouds,dailyrainin,SoftwareType,DateUTC
2013-08-24 00:24:00,60.0,59.0,30.16,East,94,0.0,0.0,95,0.00,,,0.01,,2013-08-24 04:24:00,
2013-08-24 00:53:00,59.0,58.0,30.17,East,94,0.0,0.0,97,0.00,,,0.01,,2013-08-24 04:53:00,
2013-08-24 01:23:00,59.0,58.0,30.17,East,94,0.0,0.0,98,0.00,,,0.01,,2013-08-24 05:23:00,
2013-08-24 01:53:00,59.0,59.0,30.17,East,94,0.0,0.0,99,0.00,,,0.01,,2013-08-24 05:53:00,
2013-08-24 02:22:00,59.0,59.0,30.17,East,94,0.0,0.0,99,0.00,,,0.01,,2013-08-24 06:22:00,
2013-08-24 02:52:00,59.0,59.0,30.17,East,94,0.0,0.0,99,0.00,,,0.01,,2013-08-24 06:52:00,
2013-08-24 03:22:00,59.0,59.0,30.18,East,94,0.0,0.0,99,0.00,,,0.00,,2013-08-24 07:22:00,
2013-08-24 03:53:00,59.0,59.0,30.19,East,94,0.0,0.0,99,0.00,,,0.00,,2013-08-24 07:53:00,
2013-08-24 04:12:00,59.0,59.0,30.19,East,94,0.0,0.0,99,0.00,,,0.00,,2013-08-24 08:12:00,
2013-08-24 04:22:00,59.0,59.0,30.19,East,94,0.0,0.0,99,0.00,,,0.00,,2013-08-24 08:22:00,
2013-08-24 04:52:00,58.0,58.0,30.19,East,94,0.0,0.0,99,0.00,,,0.00,,2013-08-24 08:52:00,
2013-08-24 05:22:00,58.0,58.0,30.19,East,94,0.0,0.0,99,0.00,,,0.00,,2013-08-24 09:22:00,
2013-08-24 05:53:00,58.0,58.0,30.20,East,94,0.0,0.0,99,0.00,,,0.00,,2013-08-24 09:53:00,
2013-08-24 06:23:00,57.0,57.0,30.21,East,94,0.0,0.0,99,0.00,,,0.00,,2013-08-24 10:23:00,
2013-08-24 06:53:00,57.0,57.0,30.22,East,94,0.0,0.0,99,0.00,,,0.00,,2013-08-24 10:53:00,
2013-08-24 07:22:00,56.0,56.0,30.23,East,94,0.0,0.0,99,0.00,,,0.00,,2013-08-24 11:22:00,
2013-08-24 07:52:00,57.0,57.0,30.24,East,94,0.0,0.0,99,0.00,,,0.00,,2013-08-24 11:52:00,
2013-08-24 08:21:00,59.0,59.0,30.25,East,94,0.0,0.0,99,0.00,,,0.00,,2013-08-24 12:21:00,
2013-08-24 08:52:00,61.0,61.0,30.27,East,94,0.0,0.0,99,0.00,,,0.00,,2013-08-24 12:52:00,
2013-08-24 09:22:00,63.0,63.0,30.27,East,94,0.0,0.0,99,0.00,,,0.00,,2013-08-24 13:22:00,
2013-08-24 09:52:00,66.0,65.0,30.27,East,94,0.0,0.0,95,0.00,,,0.00,,2013-08-24 13:52:00,
2013-08-24 10:02:00,66.0,65.0,30.27,East,94,0.0,0.0,95,0.00,,,0.00,,2013-08-24 14:02:00,
2013-08-24 10:11:00,66.0,65.0,30.27,East,94,0.0,0.0,95,0.00,,,0.00,,2013-08-24 14:11:00,
2013-08-24 10:22:00,66.0,65.0,30.27,East,94,0.0,0.0,95,0.00,,,0.00,,2013-08-24 14:22:00,
2013-08-24 10:52:00,72.0,60.0,30.28,NNE,26,0.0,0.0,65,0.00,,,0.00,,2013-08-24 14:52:00,
2013-08-24 11:22:00,74.0,58.0,30.29,NNE,26,0.0,0.0,57,0.00,,,0.00,,2013-08-24 15:22:00,
2013-08-24 11:54:00,76.0,58.0,30.29,SSW,196,0.0,0.0,54,0.00,,,0.00,,2013-08-24 15:54:00,
2013-08-24 12:23:00,78.0,58.0,30.29,NNE,29,0.0,0.0,50,0.00,,,0.00,,2013-08-24 16:23:00,
2013-08-24 12:53:00,80.0,58.0,30.28,ENE,57,0.0,0.0,47,0.00,,,0.00,,2013-08-24 16:53:00,
2013-08-24 13:23:00,82.0,55.0,30.27,East,90,0.0,0.0,40,0.00,,,0.00,,2013-08-24 17:23:00,
2013-08-24 13:52:00,82.0,56.0,30.27,East,87,0.0,0.0,41,0.00,,,0.00,,2013-08-24 17:52:00,
2013-08-24 14:22:00,81.0,55.0,30.27,ENE,57,0.0,0.0,41,0.00,,,0.00,,2013-08-24 18:22:00,
2013-08-24 14:53:00,82.0,54.0,30.26,NE,39,0.0,5.0,38,0.00,,,0.00,,2013-08-24 18:53:00,
2013-08-24 15:22:00,80.0,53.0,30.25,East,81,0.0,0.0,39,0.00,,,0.00,,2013-08-24 19:22:00,
2013-08-24 15:52:00,80.0,53.0,30.24,ESE,122,0.0,3.0,40,0.00,,,0.00,,2013-08-24 19:52:00,
2013-08-24 16:22:00,79.0,53.0,30.24,NE,40,0.0,4.0,40,0.00,,,0.00,,2013-08-24 20:22:00,
2013-08-24 16:53:00,79.0,52.0,30.24,ESE,104,0.0,4.0,39,0.00,,,0.00,,2013-08-24 20:53:00,
2013-08-24 17:22:00,80.0,53.0,30.24,NE,40,0.0,4.0,40,0.00,,,0.00,,2013-08-24 21:22:00,
2013-08-24 17:55:00,79.0,57.0,30.24,East,87,0.0,6.0,47,0.00,,,0.00,,2013-08-24 21:55:00,
2013-08-24 19:22:00,74.0,60.0,30.24,NE,40,0.0,0.0,61,0.00,,,0.00,,2013-08-24 23:22:00,
2013-08-24 19:53:00,72.0,60.0,30.25,NE,40,0.0,0.0,67,0.00,,,0.00,,2013-08-24 23:53:00,
2013-08-24 20:22:00,71.0,62.0,30.25,NE,40,0.0,0.0,72,0.00,,,0.00,,2013-08-25 00:22:00,
2013-08-24 20:52:00,68.0,61.0,30.26,NE,40,0.0,0.0,78,0.00,,,0.00,,2013-08-25 00:52:00,
2013-08-24 21:22:00,66.0,61.0,30.27,NE,40,0.0,0.0,85,0.00,,,0.00,,2013-08-25 01:22:00,
2013-08-24 21:52:00,65.0,62.0,30.27,NE,40,0.0,0.0,90,0.00,,,0.00,,2013-08-25 01:52:00,
2013-08-24 22:22:00,64.0,62.0,30.27,NE,40,0.0,0.0,93,0.00,,,0.00,,2013-08-25 02:22:00,
2013-08-24 22:33:00,64.0,62.0,30.27,NE,40,0.0,0.0,93,0.00,,,0.00,,2013-08-25 02:33:00,
2013-08-24 22:52:00,63.0,62.0,30.27,NE,40,0.0,0.0,95,0.00,,,0.00,,2013-08-25 02:52:00,
2013-08-24 23:23:00,63.0,62.0,30.26,NE,40,0.0,0.0,98,0.00,,,0.00,,2013-08-25 03:23:00,
2013-08-24 23:54:00,63.0,63.0,30.26,NE,40,0.0,0.0,99,0.00,,,0.00,,2013-08-25 03:54:00,